Harbor View, Ohio
Current Conditions -  °F | °C
As of 11:02 PM on Wednesday 22 Oct 2014 (Local Time) from KTDZ Reporting Station
Scattered Clouds Scattered Clouds  
Wind Chill:   Ceiling: Unl
Heat Index:   Visibility: 10mi
Dew Point:   Wind: 3mph
Humidity: 77%   Direction: 360°N
Pressure: 30.28"   Gusts: NA
Location:  41.69°N, 83.44°W
Report Text: KTDZ 230302Z AUTO 36003KT 10SM FEW025 SCT031 08/04 A3028 RMK AO2 T00830044 TSNO
Loading
Personal Weather Stations






























Interactive Weather Map
Tropical Storm Tracking
New forecast layout! Learn more

10-Day Weather Forecast

Advertisements
Track Severe Weather on mobile